createdAt,value
2022-10-06T00:00:49.639Z,8.70
2022-10-06T00:03:17.281Z,8.70
2022-10-06T00:05:44.767Z,7.30
2022-10-06T00:08:12.229Z,9.00
2022-10-06T00:10:40.531Z,8.30
2022-10-06T00:13:08.988Z,8.70
2022-10-06T00:15:36.910Z,8.10
2022-10-06T00:18:04.507Z,9.30
2022-10-06T00:20:31.866Z,7.40
2022-10-06T00:22:59.229Z,9.80
2022-10-06T00:25:26.996Z,7.60
2022-10-06T00:27:55.293Z,10.40
2022-10-06T00:30:26.418Z,8.80
2022-10-06T00:32:59.808Z,10.00
2022-10-06T00:35:31.665Z,9.90
2022-10-06T00:37:58.928Z,9.30
2022-10-06T00:40:26.388Z,9.20
2022-10-06T00:42:57.508Z,7.70
2022-10-06T00:45:37.269Z,9.00
2022-10-06T00:48:22.623Z,7.40
2022-10-06T00:50:52.145Z,8.30
2022-10-06T00:53:19.908Z,7.90
2022-10-06T00:55:47.269Z,9.70
2022-10-06T00:58:15.302Z,7.60
2022-10-06T01:00:43.805Z,9.50
2022-10-06T01:03:16.227Z,8.90
2022-10-06T01:05:51.898Z,9.70
2022-10-06T01:08:19.708Z,8.60
2022-10-06T01:10:47.048Z,7.80
2022-10-06T01:13:15.438Z,8.50
2022-10-06T01:15:54.798Z,10.80
2022-10-06T01:18:23.350Z,8.10
2022-10-06T01:20:55.876Z,8.60
2022-10-06T01:23:23.471Z,8.90
2022-10-06T01:25:51.871Z,7.40
2022-10-06T01:28:19.136Z,7.70
2022-10-06T01:30:53.616Z,10.10
2022-10-06T01:33:23.322Z,7.60
2022-10-06T01:35:52.629Z,7.30
2022-10-06T01:38:20.703Z,9.90
2022-10-06T01:40:51.976Z,8.40
2022-10-06T01:43:19.249Z,8.30
2022-10-06T01:45:46.483Z,10.30
2022-10-06T01:48:15.468Z,9.30
2022-10-06T01:50:42.799Z,7.50
2022-10-06T01:53:09.968Z,7.70
2022-10-06T01:55:37.357Z,8.00
2022-10-06T01:58:06.165Z,9.70
2022-10-06T02:00:33.868Z,8.70
2022-10-06T02:03:01.228Z,8.20
2022-10-06T02:05:29.188Z,8.00
2022-10-06T02:07:56.520Z,9.30
2022-10-06T02:10:23.784Z,8.10
2022-10-06T02:12:53.551Z,8.60
2022-10-06T02:15:22.388Z,8.30
2022-10-06T02:17:51.688Z,9.20
2022-10-06T02:20:18.847Z,7.30
2022-10-06T02:22:46.186Z,7.60
2022-10-06T02:25:13.436Z,8.40
2022-10-06T02:27:40.786Z,8.40
2022-10-06T02:30:10.902Z,7.60
2022-10-06T02:32:40.522Z,8.70
2022-10-06T02:35:09.528Z,8.00
2022-10-06T02:37:36.869Z,7.40
2022-10-06T02:40:04.940Z,7.50
2022-10-06T02:42:32.186Z,7.50
2022-10-06T02:45:00.265Z,7.40
2022-10-06T02:47:27.529Z,8.00
2022-10-06T02:49:54.781Z,8.10
2022-10-06T02:52:23.968Z,8.40
2022-10-06T02:54:51.527Z,8.00
2022-10-06T02:57:18.696Z,8.40
2022-10-06T02:59:45.934Z,9.50
2022-10-06T03:02:13.275Z,8.80
2022-10-06T03:04:41.048Z,7.30
2022-10-06T03:07:08.307Z,10.70
2022-10-06T03:09:37.996Z,7.70
2022-10-06T03:12:06.173Z,8.20
2022-10-06T03:14:37.128Z,7.70
2022-10-06T03:17:04.564Z,7.60
2022-10-06T03:19:32.022Z,9.50
2022-10-06T03:21:59.445Z,8.50
2022-10-06T03:24:46.956Z,8.70
2022-10-06T03:27:14.052Z,8.70
2022-10-06T03:29:41.528Z,7.40
2022-10-06T03:32:08.890Z,8.20
2022-10-06T03:34:37.957Z,8.60
2022-10-06T03:37:07.258Z,9.30
2022-10-06T03:39:34.729Z,7.40
2022-10-06T03:42:02.188Z,8.30
2022-10-06T03:44:29.928Z,10.90
2022-10-06T03:46:57.187Z,8.20
2022-10-06T03:49:25.080Z,8.10
2022-10-06T03:51:54.569Z,7.80
2022-10-06T03:54:25.609Z,7.10
2022-10-06T03:56:53.984Z,8.00
2022-10-06T03:59:21.548Z,8.50
2022-10-06T04:01:49.644Z,10.80
2022-10-06T04:04:25.907Z,8.30
2022-10-06T04:06:58.249Z,7.90
2022-10-06T04:09:25.496Z,8.70
2022-10-06T04:11:52.967Z,8.20
2022-10-06T04:14:21.028Z,7.90
2022-10-06T04:16:49.670Z,6.80
2022-10-06T04:19:27.822Z,7.70
2022-10-06T04:21:56.385Z,7.20
2022-10-06T04:24:25.266Z,7.00
2022-10-06T04:26:52.967Z,8.60
2022-10-06T04:29:21.644Z,8.10
2022-10-06T04:31:55.745Z,9.70
2022-10-06T04:34:31.608Z,8.70
2022-10-06T04:36:59.189Z,8.10
2022-10-06T04:39:26.846Z,7.80
2022-10-06T04:41:54.178Z,7.70
2022-10-06T04:44:29.126Z,7.50
2022-10-06T04:47:01.121Z,8.60
2022-10-06T04:49:28.740Z,8.00
2022-10-06T04:51:57.011Z,7.20
2022-10-06T04:54:24.684Z,7.80
2022-10-06T04:56:57.762Z,8.40
2022-10-06T04:59:46.220Z,8.20
2022-10-06T05:02:16.130Z,9.30
2022-10-06T05:04:44.039Z,9.00
2022-10-06T05:07:12.770Z,7.90
2022-10-06T05:09:40.791Z,9.20
2022-10-06T05:12:10.769Z,8.70
2022-10-06T05:14:38.734Z,10.20
2022-10-06T05:17:06.093Z,8.40
2022-10-06T05:19:34.688Z,9.30
2022-10-06T05:22:02.350Z,8.20
2022-10-06T05:24:31.834Z,10.50
2022-10-06T05:27:02.244Z,9.00
2022-10-06T05:29:30.330Z,9.40
2022-10-06T05:31:57.748Z,11.50
2022-10-06T05:34:25.867Z,10.20
2022-10-06T05:36:53.317Z,11.00
2022-10-06T05:39:20.968Z,9.10
2022-10-06T05:41:56.261Z,10.70
2022-10-06T05:44:25.004Z,9.70
2022-10-06T05:46:52.256Z,9.70
2022-10-06T05:49:20.248Z,7.80
2022-10-06T05:51:59.281Z,10.20
2022-10-06T05:54:32.518Z,10.70
2022-10-06T05:57:00.335Z,8.40
2022-10-06T05:59:29.036Z,10.00
2022-10-06T06:01:56.449Z,11.30
2022-10-06T06:04:31.308Z,10.50
2022-10-06T06:06:58.509Z,9.40
2022-10-06T06:09:29.169Z,11.60
2022-10-06T06:12:00.466Z,10.60
2022-10-06T06:14:59.661Z,9.90
2022-10-06T06:17:32.790Z,9.60
2022-10-06T06:20:02.614Z,8.70
2022-10-06T06:22:30.912Z,9.60
2022-10-06T06:24:58.966Z,8.50
2022-10-06T06:27:26.725Z,8.30
2022-10-06T06:29:54.082Z,8.30
2022-10-06T06:32:21.449Z,8.40
2022-10-06T06:34:49.294Z,8.30
2022-10-06T06:37:16.972Z,9.20
2022-10-06T06:39:46.450Z,8.30
2022-10-06T06:42:14.214Z,9.10
2022-10-06T06:44:54.699Z,10.30
2022-10-06T06:47:30.454Z,9.90
2022-10-06T06:50:00.554Z,14.50
2022-10-06T06:52:29.235Z,9.80
2022-10-06T06:54:57.432Z,8.30
2022-10-06T06:57:26.030Z,10.60
2022-10-06T06:59:57.395Z,7.90
2022-10-06T07:02:29.901Z,7.90
2022-10-06T07:04:57.798Z,10.00
2022-10-06T07:07:25.191Z,10.60
2022-10-06T07:09:53.848Z,8.50
2022-10-06T07:12:22.928Z,6.70
2022-10-06T07:15:12.528Z,9.40
2022-10-06T07:18:00.596Z,8.80
2022-10-06T07:20:48.186Z,7.30
2022-10-06T07:23:38.563Z,7.50
2022-10-06T07:26:09.909Z,8.60
2022-10-06T07:28:37.351Z,7.40
2022-10-06T07:31:04.573Z,7.80
2022-10-06T07:33:33.136Z,10.40
2022-10-06T07:36:03.626Z,7.50
2022-10-06T07:38:31.867Z,9.50
2022-10-06T07:41:19.389Z,6.70
2022-10-06T07:43:54.167Z,7.00
2022-10-06T07:46:22.222Z,7.80
2022-10-06T07:49:08.809Z,11.10
2022-10-06T07:51:36.913Z,8.60
2022-10-06T07:54:04.685Z,12.30
2022-10-06T07:56:58.529Z,7.10
2022-10-06T07:59:25.705Z,7.80
2022-10-06T08:01:55.462Z,8.60
2022-10-06T08:04:23.092Z,9.10
2022-10-06T08:06:50.841Z,11.00
2022-10-06T08:09:18.302Z,8.70
2022-10-06T08:11:48.426Z,6.90
2022-10-06T08:14:15.966Z,7.30
2022-10-06T08:16:43.128Z,8.00
2022-10-06T08:19:12.232Z,9.20
2022-10-06T08:21:40.286Z,7.10
2022-10-06T08:24:07.768Z,8.50
2022-10-06T08:26:34.929Z,8.80
2022-10-06T08:29:03.697Z,9.70
2022-10-06T08:31:33.227Z,7.50
2022-10-06T08:34:01.802Z,9.10
2022-10-06T08:36:31.971Z,7.30
2022-10-06T08:39:00.995Z,7.30
2022-10-06T08:41:40.059Z,6.50
2022-10-06T08:44:20.559Z,9.20
2022-10-06T08:46:56.645Z,6.70
2022-10-06T08:49:26.337Z,8.20
2022-10-06T08:51:59.769Z,7.20
2022-10-06T08:54:37.998Z,8.10
2022-10-06T08:57:25.385Z,7.80
2022-10-06T08:59:54.134Z,7.30
2022-10-06T09:02:46.467Z,8.00
2022-10-06T09:05:23.686Z,7.30
2022-10-06T09:08:02.807Z,8.10
2022-10-06T09:10:49.729Z,7.10
2022-10-06T09:13:39.625Z,8.80
2022-10-06T09:16:10.449Z,9.10
2022-10-06T09:21:53.308Z,6.30
2022-10-06T09:24:30.313Z,6.50
2022-10-06T09:26:59.165Z,6.80
2022-10-06T09:29:32.102Z,7.50
2022-10-06T09:31:59.688Z,7.00
2022-10-06T09:34:38.966Z,9.60
2022-10-06T09:37:09.785Z,6.90
2022-10-06T09:39:49.742Z,7.30
2022-10-06T09:42:30.082Z,8.20
2022-10-06T09:45:08.354Z,6.90
2022-10-06T09:47:45.443Z,6.80
2022-10-06T09:50:23.652Z,9.20
2022-10-06T09:53:03.739Z,8.10
2022-10-06T09:55:38.550Z,8.10
2022-10-06T09:58:20.269Z,6.80
2022-10-06T10:00:53.163Z,7.90
2022-10-06T10:03:21.675Z,9.00
2022-10-06T10:05:55.293Z,7.10
2022-10-06T10:08:32.317Z,7.30
2022-10-06T10:11:31.769Z,6.90
2022-10-06T10:13:59.610Z,9.20
2022-10-06T10:16:35.069Z,7.70
2022-10-06T10:19:04.534Z,7.20
2022-10-06T10:21:37.403Z,6.90
2022-10-06T10:24:07.105Z,6.60
2022-10-06T10:26:46.398Z,6.90
2022-10-06T10:30:05.948Z,6.50
2022-10-06T10:32:51.973Z,7.00
2022-10-06T10:35:21.307Z,5.40
2022-10-06T10:37:52.652Z,7.40
2022-10-06T10:40:40.309Z,6.90
2022-10-06T10:43:22.729Z,7.10
2022-10-06T10:46:00.024Z,6.60
2022-10-06T10:48:36.011Z,6.60
2022-10-06T10:53:53.866Z,6.90
2022-10-06T10:56:23.604Z,5.70
2022-10-06T10:59:04.550Z,7.50
2022-10-06T11:01:33.438Z,6.70
2022-10-06T11:04:02.725Z,8.30
2022-10-06T11:06:54.997Z,6.60
2022-10-06T11:09:35.049Z,5.70
2022-10-06T11:12:27.731Z,7.90
2022-10-06T11:15:05.864Z,6.20
2022-10-06T11:17:44.648Z,4.40
2022-10-06T11:20:42.023Z,4.90
2022-10-06T11:23:15.045Z,4.00
2022-10-06T11:25:50.649Z,5.70
2022-10-06T11:28:20.735Z,6.50
2022-10-06T11:31:07.586Z,3.90
2022-10-06T11:33:38.672Z,5.70
2022-10-06T11:36:11.974Z,3.40
2022-10-06T11:38:43.143Z,7.00
2022-10-06T11:41:36.690Z,5.30
2022-10-06T11:44:34.982Z,3.50
2022-10-06T11:47:16.169Z,3.80
2022-10-06T11:49:58.988Z,2.90
2022-10-06T11:52:26.160Z,3.00
2022-10-06T11:55:10.027Z,3.30
2022-10-06T11:58:12.679Z,4.00
2022-10-06T12:00:52.564Z,4.30
2022-10-06T12:03:28.962Z,3.90
2022-10-06T12:05:57.033Z,5.30
2022-10-06T12:08:39.299Z,3.40
2022-10-06T12:11:38.339Z,5.30
2022-10-06T12:15:31.916Z,6.40
2022-10-06T12:17:18.358Z,5.30
2022-10-06T12:20:00.190Z,4.10
2022-10-06T12:22:32.019Z,4.40
2022-10-06T12:25:06.597Z,4.70
2022-10-06T12:27:53.714Z,5.30
2022-10-06T12:30:24.387Z,5.10
2022-10-06T12:32:58.938Z,5.90
2022-10-06T12:35:32.836Z,4.30
2022-10-06T12:38:07.924Z,3.80
2022-10-06T12:40:48.749Z,3.90
2022-10-06T12:43:18.507Z,5.30
2022-10-06T12:46:16.626Z,4.30
2022-10-06T12:49:16.155Z,3.60
2022-10-06T12:51:44.953Z,4.80
2022-10-06T12:54:35.310Z,6.60
2022-10-06T12:57:16.318Z,6.60
2022-10-06T12:59:43.972Z,4.80
2022-10-06T13:02:18.287Z,4.20
2022-10-06T13:04:54.946Z,4.70
2022-10-06T13:07:33.442Z,4.20
2022-10-06T13:10:16.008Z,4.60
2022-10-06T13:12:47.877Z,4.40
2022-10-06T13:15:16.352Z,4.00
2022-10-06T13:17:47.886Z,4.40
2022-10-06T13:20:44.121Z,7.50
2022-10-06T13:23:30.432Z,3.90
2022-10-06T13:25:58.976Z,5.60
2022-10-06T13:28:34.914Z,5.60
2022-10-06T13:31:22.973Z,7.30
2022-10-06T13:34:05.956Z,4.30
2022-10-06T13:36:39.919Z,3.60
2022-10-06T13:39:12.802Z,5.20
2022-10-06T13:41:54.920Z,6.00
2022-10-06T13:44:35.121Z,5.80
2022-10-06T13:47:05.397Z,4.20
2022-10-06T13:49:42.692Z,5.60
2022-10-06T13:52:39.785Z,5.00
2022-10-06T13:55:18.492Z,5.80
2022-10-06T13:58:09.316Z,6.20
2022-10-06T14:00:47.632Z,4.80
2022-10-06T14:03:24.916Z,4.40
2022-10-06T14:06:05.428Z,3.60
2022-10-06T14:08:33.076Z,4.20
2022-10-06T14:11:08.796Z,4.80
2022-10-06T14:13:53.227Z,5.60
2022-10-06T14:16:23.782Z,6.30
2022-10-06T14:19:01.701Z,4.50
2022-10-06T14:21:45.601Z,10.20
2022-10-06T14:24:38.802Z,5.70
2022-10-06T14:27:07.044Z,4.00
2022-10-06T14:29:34.667Z,5.00
2022-10-06T14:32:10.171Z,4.80
2022-10-06T14:34:37.435Z,4.90
2022-10-06T14:37:04.665Z,4.10
2022-10-06T14:39:31.963Z,4.50
2022-10-06T14:42:00.441Z,5.70
2022-10-06T14:44:27.577Z,4.30
2022-10-06T14:46:54.983Z,6.20
2022-10-06T14:49:22.773Z,5.10
2022-10-06T14:51:50.060Z,6.20
2022-10-06T14:54:17.897Z,6.10
2022-10-06T14:56:45.081Z,4.20
2022-10-06T14:59:17.239Z,4.80
2022-10-06T15:01:46.152Z,6.10
2022-10-06T15:04:15.333Z,5.70
2022-10-06T15:07:01.772Z,5.10
2022-10-06T15:09:31.040Z,5.30
2022-10-06T15:11:59.405Z,5.90
2022-10-06T15:14:29.016Z,6.90
2022-10-06T15:16:59.442Z,6.40
2022-10-06T15:19:27.027Z,6.90
2022-10-06T15:21:54.928Z,7.50
2022-10-06T15:24:22.366Z,5.40
2022-10-06T15:27:08.102Z,4.40
2022-10-06T15:29:35.661Z,6.00
2022-10-06T15:32:04.266Z,5.00
2022-10-06T15:34:34.566Z,5.50
2022-10-06T15:37:01.795Z,6.30
2022-10-06T15:39:31.373Z,6.00
2022-10-06T15:41:59.066Z,5.30
2022-10-06T15:44:26.947Z,7.40
2022-10-06T15:46:55.920Z,5.40
2022-10-06T15:49:27.707Z,6.00
2022-10-06T15:51:57.115Z,6.40
2022-10-06T15:54:25.101Z,5.90
2022-10-06T15:56:57.214Z,6.40
2022-10-06T15:59:25.816Z,6.20
2022-10-06T16:01:58.212Z,6.90
2022-10-06T16:04:39.932Z,7.20
2022-10-06T16:07:17.783Z,6.60
2022-10-06T16:09:49.477Z,7.40
2022-10-06T16:12:19.361Z,10.90
2022-10-06T16:14:46.923Z,5.80
2022-10-06T16:17:15.358Z,8.20
2022-10-06T16:19:42.700Z,8.30
2022-10-06T16:22:15.616Z,8.40
2022-10-06T16:24:42.956Z,6.80
2022-10-06T16:27:14.634Z,8.60
2022-10-06T16:29:41.911Z,8.20
2022-10-06T16:32:09.525Z,8.10
2022-10-06T16:34:36.790Z,11.50
2022-10-06T16:37:04.064Z,7.80
2022-10-06T16:39:31.317Z,7.70
2022-10-06T16:41:58.569Z,6.20
2022-10-06T16:44:25.719Z,7.40
2022-10-06T16:46:53.025Z,6.00
2022-10-06T16:49:21.170Z,5.80
2022-10-06T16:51:48.710Z,6.20
2022-10-06T16:54:17.697Z,7.30
2022-10-06T16:56:46.823Z,8.20
2022-10-06T16:59:19.943Z,7.00
2022-10-06T17:01:48.693Z,8.80
2022-10-06T17:04:20.383Z,6.30
2022-10-06T17:06:55.487Z,8.40
2022-10-06T17:09:24.865Z,7.70
2022-10-06T17:11:54.184Z,7.80
2022-10-06T17:14:22.254Z,11.10
2022-10-06T17:16:52.245Z,9.60
2022-10-06T17:19:21.237Z,7.80
2022-10-06T17:21:52.937Z,8.80
2022-10-06T17:24:28.651Z,10.60
2022-10-06T17:26:57.842Z,12.90
2022-10-06T17:29:26.040Z,10.50
2022-10-06T17:31:59.975Z,9.80
2022-10-06T17:34:32.421Z,11.70
2022-10-06T17:37:01.488Z,7.70
2022-10-06T17:39:28.850Z,10.70
2022-10-06T17:41:56.511Z,8.10
2022-10-06T17:44:27.318Z,10.20
2022-10-06T17:46:59.817Z,11.00
2022-10-06T17:49:30.695Z,7.60
2022-10-06T17:51:58.148Z,9.40
2022-10-06T17:54:27.546Z,10.10
2022-10-06T17:56:58.536Z,10.20
2022-10-06T17:59:29.111Z,12.20
2022-10-06T18:01:58.810Z,10.80
2022-10-06T18:04:27.464Z,10.00
2022-10-06T18:06:55.174Z,11.80
2022-10-06T18:09:23.214Z,11.50
2022-10-06T18:12:02.968Z,12.60
2022-10-06T18:14:34.929Z,15.50
2022-10-06T18:19:35.569Z,16.00
2022-10-06T18:22:10.778Z,15.20
2022-10-06T18:24:39.077Z,14.80
2022-10-06T18:27:08.423Z,14.70
2022-10-06T18:29:39.226Z,16.40
2022-10-06T18:33:16.524Z,14.30
2022-10-06T18:37:44.063Z,12.30
2022-10-06T18:40:12.517Z,13.40
2022-10-06T18:42:41.453Z,16.90
2022-10-06T18:45:28.293Z,16.90
2022-10-06T18:48:13.917Z,15.00
2022-10-06T18:50:41.638Z,18.50
2022-10-06T18:53:09.718Z,16.30
2022-10-06T18:55:38.892Z,17.90
2022-10-06T18:58:06.758Z,17.60
2022-10-06T19:00:34.101Z,18.20
2022-10-06T19:03:01.867Z,19.00
2022-10-06T19:05:30.031Z,20.40
2022-10-06T19:07:58.028Z,20.20
2022-10-06T19:10:25.759Z,17.50
2022-10-06T19:12:54.550Z,20.70
2022-10-06T19:15:22.944Z,21.90
2022-10-06T19:17:52.028Z,20.60
2022-10-06T19:20:20.020Z,23.40
2022-10-06T19:22:48.364Z,22.30
2022-10-06T19:25:19.933Z,22.00
2022-10-06T19:27:49.058Z,21.20
2022-10-06T19:30:17.008Z,22.70
2022-10-06T19:32:44.568Z,22.30
2022-10-06T19:35:12.300Z,22.60
2022-10-06T19:37:42.061Z,22.10
2022-10-06T19:40:11.737Z,21.40
2022-10-06T19:42:48.435Z,21.30
2022-10-06T19:45:16.722Z,21.30
2022-10-06T19:47:46.731Z,20.00
2022-10-06T19:50:15.181Z,20.20
2022-10-06T19:52:42.773Z,21.50
2022-10-06T19:55:09.983Z,19.70
2022-10-06T19:57:37.282Z,20.30
2022-10-06T20:00:06.819Z,18.10
2022-10-06T20:02:43.187Z,21.90
2022-10-06T20:05:17.193Z,19.60
2022-10-06T20:07:45.912Z,18.50
2022-10-06T20:10:14.005Z,20.00
2022-10-06T20:12:44.086Z,19.90
2022-10-06T20:15:13.121Z,21.70
2022-10-06T20:17:42.754Z,30.30
2022-10-06T20:20:10.568Z,23.40
2022-10-06T20:22:38.014Z,21.20
2022-10-06T20:25:07.446Z,25.00
2022-10-06T20:27:34.788Z,19.50
2022-10-06T20:30:02.121Z,20.30
2022-10-06T20:32:30.384Z,22.80
2022-10-06T20:34:58.508Z,19.80
2022-10-06T20:37:25.849Z,18.60
2022-10-06T20:40:12.306Z,19.20
2022-10-06T20:42:45.057Z,16.30
2022-10-06T20:45:12.260Z,16.30
2022-10-06T20:47:39.628Z,19.50
2022-10-06T20:50:07.708Z,20.30
2022-10-06T20:52:35.266Z,20.00
2022-10-06T20:55:02.609Z,19.00
2022-10-06T20:57:33.714Z,22.20
2022-10-06T21:00:01.098Z,19.90
2022-10-06T21:02:28.457Z,18.30
2022-10-06T21:04:58.197Z,19.60
2022-10-06T21:07:25.738Z,24.80
2022-10-06T21:09:53.390Z,18.00
2022-10-06T21:12:20.850Z,19.80
2022-10-06T21:14:48.427Z,20.50
2022-10-06T21:17:16.124Z,21.50
2022-10-06T21:19:43.439Z,20.10
2022-10-06T21:22:11.320Z,21.80
2022-10-06T21:24:38.865Z,22.80
2022-10-06T21:27:06.318Z,20.40
2022-10-06T21:29:33.635Z,21.60
2022-10-06T21:32:01.242Z,20.70
2022-10-06T21:34:28.677Z,19.70
2022-10-06T21:36:56.750Z,19.10
2022-10-06T21:39:24.008Z,20.30
2022-10-06T21:41:51.357Z,20.00
2022-10-06T21:44:19.361Z,20.50
2022-10-06T21:46:47.951Z,20.40
2022-10-06T21:49:23.267Z,17.60
2022-10-06T21:51:55.595Z,17.70
2022-10-06T21:54:24.013Z,19.30
2022-10-06T21:56:52.178Z,21.00
2022-10-06T21:59:19.738Z,19.60
2022-10-06T22:01:48.348Z,18.90
2022-10-06T22:04:16.197Z,18.00
2022-10-06T22:06:45.396Z,16.70
2022-10-06T22:09:16.041Z,16.80
2022-10-06T22:11:43.878Z,20.00
2022-10-06T22:14:13.402Z,20.50
2022-10-06T22:16:41.360Z,18.20
2022-10-06T22:19:10.975Z,18.10
2022-10-06T22:21:41.209Z,20.20
2022-10-06T22:24:11.232Z,17.10
2022-10-06T22:26:40.099Z,19.80
2022-10-06T22:29:10.040Z,18.30
2022-10-06T22:31:41.859Z,22.00
2022-10-06T22:34:10.857Z,19.10
2022-10-06T22:36:38.416Z,21.30
2022-10-06T22:39:05.977Z,19.80
2022-10-06T22:41:33.459Z,18.80
2022-10-06T22:44:01.102Z,19.00
2022-10-06T22:46:30.810Z,19.90
2022-10-06T22:48:58.977Z,17.60
2022-10-06T22:51:26.855Z,18.30
2022-10-06T22:53:58.015Z,20.90
2022-10-06T22:56:27.189Z,20.80
2022-10-06T22:58:55.258Z,16.10
2022-10-06T23:01:22.818Z,18.30
2022-10-06T23:03:50.156Z,19.00
2022-10-06T23:06:18.534Z,17.90
2022-10-06T23:08:45.897Z,18.90
2022-10-06T23:11:15.860Z,19.10
2022-10-06T23:13:43.998Z,18.60
2022-10-06T23:16:13.653Z,20.20
2022-10-06T23:18:42.152Z,17.80
2022-10-06T23:21:12.002Z,20.10
2022-10-06T23:23:39.558Z,18.10
2022-10-06T23:26:08.856Z,22.90
2022-10-06T23:28:36.977Z,18.50
2022-10-06T23:31:05.884Z,20.10
2022-10-06T23:33:33.578Z,23.70
2022-10-06T23:36:03.288Z,18.00
2022-10-06T23:38:30.726Z,17.10
2022-10-06T23:40:58.391Z,15.60
2022-10-06T23:43:25.845Z,16.90
2022-10-06T23:45:53.319Z,21.00
2022-10-06T23:48:21.077Z,21.60
2022-10-06T23:51:00.183Z,21.80
2022-10-06T23:53:28.694Z,21.30
2022-10-06T23:55:55.875Z,18.60
2022-10-06T23:58:23.588Z,17.30
